sensor_id;sensor_type;location;lat;lon;timestamp;P1;durP1;ratioP1;P2;durP2;ratioP2
23768;SDS011;12064;50.890;5.424;2023-07-13T00:00:16;2.00;;;0.98;;
23768;SDS011;12064;50.890;5.424;2023-07-13T00:09:06;2.30;;;1.00;;
23768;SDS011;12064;50.890;5.424;2023-07-13T00:17:58;2.05;;;1.20;;
23768;SDS011;12064;50.890;5.424;2023-07-13T00:26:51;1.50;;;0.90;;
23768;SDS011;12064;50.890;5.424;2023-07-13T00:35:41;2.63;;;1.17;;
23768;SDS011;12064;50.890;5.424;2023-07-13T00:44:33;3.28;;;1.00;;
23768;SDS011;12064;50.890;5.424;2023-07-13T00:53:25;2.25;;;1.02;;
23768;SDS011;12064;50.890;5.424;2023-07-13T01:02:17;3.75;;;1.40;;
23768;SDS011;12064;50.890;5.424;2023-07-13T01:11:08;1.90;;;1.13;;
23768;SDS011;12064;50.890;5.424;2023-07-13T01:19:59;2.60;;;1.00;;
23768;SDS011;12064;50.890;5.424;2023-07-13T01:28:50;2.83;;;1.10;;
23768;SDS011;12064;50.890;5.424;2023-07-13T01:37:40;3.23;;;1.03;;
23768;SDS011;12064;50.890;5.424;2023-07-13T01:46:31;2.27;;;1.20;;
23768;SDS011;12064;50.890;5.424;2023-07-13T01:55:22;1.47;;;0.80;;
23768;SDS011;12064;50.890;5.424;2023-07-13T02:04:13;2.08;;;1.00;;
23768;SDS011;12064;50.890;5.424;2023-07-13T02:13:05;1.67;;;0.93;;
23768;SDS011;12064;50.890;5.424;2023-07-13T02:21:56;2.03;;;1.10;;
23768;SDS011;12064;50.890;5.424;2023-07-13T02:30:48;1.43;;;0.93;;
23768;SDS011;12064;50.890;5.424;2023-07-13T02:39:38;2.55;;;1.27;;
23768;SDS011;12064;50.890;5.424;2023-07-13T02:48:29;3.00;;;1.20;;
23768;SDS011;12064;50.890;5.424;2023-07-13T02:57:20;2.00;;;0.90;;
23768;SDS011;12064;50.890;5.424;2023-07-13T03:06:11;2.60;;;1.30;;
23768;SDS011;12064;50.890;5.424;2023-07-13T03:15:03;3.90;;;1.35;;
23768;SDS011;12064;50.890;5.424;2023-07-13T03:23:53;2.85;;;1.27;;
23768;SDS011;12064;50.890;5.424;2023-07-13T03:32:44;3.30;;;1.30;;
23768;SDS011;12064;50.890;5.424;2023-07-13T03:41:35;3.03;;;1.07;;
23768;SDS011;12064;50.890;5.424;2023-07-13T03:50:26;2.20;;;1.20;;
23768;SDS011;12064;50.890;5.424;2023-07-13T03:59:17;2.80;;;1.20;;
23768;SDS011;12064;50.890;5.424;2023-07-13T04:08:07;3.07;;;1.17;;
23768;SDS011;12064;50.890;5.424;2023-07-13T04:16:58;3.03;;;1.27;;
23768;SDS011;12064;50.890;5.424;2023-07-13T04:25:49;3.37;;;1.37;;
23768;SDS011;12064;50.890;5.424;2023-07-13T04:34:42;2.63;;;1.27;;
23768;SDS011;12064;50.890;5.424;2023-07-13T04:43:33;3.37;;;1.20;;
23768;SDS011;12064;50.890;5.424;2023-07-13T04:52:24;5.60;;;1.80;;
23768;SDS011;12064;50.890;5.424;2023-07-13T05:01:15;6.25;;;2.00;;
23768;SDS011;12064;50.890;5.424;2023-07-13T05:10:05;6.50;;;1.97;;
23768;SDS011;12064;50.890;5.424;2023-07-13T05:18:59;7.32;;;2.30;;
23768;SDS011;12064;50.890;5.424;2023-07-13T05:27:50;5.37;;;2.10;;
23768;SDS011;12064;50.890;5.424;2023-07-13T05:36:41;7.53;;;2.50;;
23768;SDS011;12064;50.890;5.424;2023-07-13T05:45:31;6.60;;;2.13;;
23768;SDS011;12064;50.890;5.424;2023-07-13T05:54:22;7.15;;;2.55;;
23768;SDS011;12064;50.890;5.424;2023-07-13T06:03:13;8.18;;;2.58;;
23768;SDS011;12064;50.890;5.424;2023-07-13T06:12:04;9.07;;;2.40;;
23768;SDS011;12064;50.890;5.424;2023-07-13T06:20:55;7.88;;;2.75;;
23768;SDS011;12064;50.890;5.424;2023-07-13T06:29:47;8.45;;;2.60;;
23768;SDS011;12064;50.890;5.424;2023-07-13T06:38:38;9.65;;;2.60;;
23768;SDS011;12064;50.890;5.424;2023-07-13T06:47:29;11.43;;;2.63;;
23768;SDS011;12064;50.890;5.424;2023-07-13T06:56:19;8.88;;;2.97;;
23768;SDS011;12064;50.890;5.424;2023-07-13T07:05:10;8.07;;;2.50;;
23768;SDS011;12064;50.890;5.424;2023-07-13T07:14:00;8.52;;;2.22;;
23768;SDS011;12064;50.890;5.424;2023-07-13T07:22:51;6.70;;;2.33;;
23768;SDS011;12064;50.890;5.424;2023-07-13T07:31:42;10.57;;;2.45;;
23768;SDS011;12064;50.890;5.424;2023-07-13T07:40:32;7.80;;;2.27;;
23768;SDS011;12064;50.890;5.424;2023-07-13T07:49:30;6.60;;;2.30;;
23768;SDS011;12064;50.890;5.424;2023-07-13T07:58:21;5.30;;;1.95;;
23768;SDS011;12064;50.890;5.424;2023-07-13T08:07:12;5.90;;;2.38;;
23768;SDS011;12064;50.890;5.424;2023-07-13T08:16:04;8.18;;;2.30;;
23768;SDS011;12064;50.890;5.424;2023-07-13T08:24:55;6.63;;;2.60;;
23768;SDS011;12064;50.890;5.424;2023-07-13T08:33:46;6.53;;;2.10;;
23768;SDS011;12064;50.890;5.424;2023-07-13T08:42:42;7.90;;;2.33;;
23768;SDS011;12064;50.890;5.424;2023-07-13T08:51:59;9.15;;;2.33;;
23768;SDS011;12064;50.890;5.424;2023-07-13T09:01:12;6.95;;;2.25;;
23768;SDS011;12064;50.890;5.424;2023-07-13T09:10:33;6.03;;;2.30;;
23768;SDS011;12064;50.890;5.424;2023-07-13T09:19:39;7.07;;;2.25;;
23768;SDS011;12064;50.890;5.424;2023-07-13T09:28:38;6.88;;;2.03;;
23768;SDS011;12064;50.890;5.424;2023-07-13T09:37:32;5.95;;;1.92;;
23768;SDS011;12064;50.890;5.424;2023-07-13T09:46:23;5.88;;;2.17;;
23768;SDS011;12064;50.890;5.424;2023-07-13T09:55:27;4.83;;;2.00;;
23768;SDS011;12064;50.890;5.424;2023-07-13T10:04:27;6.23;;;1.90;;
23768;SDS011;12064;50.890;5.424;2023-07-13T10:13:31;5.00;;;1.80;;
23768;SDS011;12064;50.890;5.424;2023-07-13T10:22:31;4.47;;;1.95;;
23768;SDS011;12064;50.890;5.424;2023-07-13T10:31:35;4.35;;;1.73;;
23768;SDS011;12064;50.890;5.424;2023-07-13T10:41:11;4.63;;;1.65;;
23768;SDS011;12064;50.890;5.424;2023-07-13T10:49:47;6.05;;;1.92;;
23768;SDS011;12064;50.890;5.424;2023-07-13T10:58:43;4.13;;;1.63;;
23768;SDS011;12064;50.890;5.424;2023-07-13T11:07:51;4.85;;;1.75;;
23768;SDS011;12064;50.890;5.424;2023-07-13T11:16:45;5.50;;;1.60;;
23768;SDS011;12064;50.890;5.424;2023-07-13T11:25:36;3.10;;;1.40;;
23768;SDS011;12064;50.890;5.424;2023-07-13T11:34:33;6.60;;;1.70;;
23768;SDS011;12064;50.890;5.424;2023-07-13T11:43:26;4.53;;;1.73;;
23768;SDS011;12064;50.890;5.424;2023-07-13T11:52:21;4.40;;;1.75;;
23768;SDS011;12064;50.890;5.424;2023-07-13T12:01:26;4.50;;;1.33;;
23768;SDS011;12064;50.890;5.424;2023-07-13T12:10:29;4.43;;;1.50;;
23768;SDS011;12064;50.890;5.424;2023-07-13T12:19:23;3.67;;;1.50;;
23768;SDS011;12064;50.890;5.424;2023-07-13T12:28:30;4.07;;;1.80;;
23768;SDS011;12064;50.890;5.424;2023-07-13T12:37:26;5.18;;;1.63;;
23768;SDS011;12064;50.890;5.424;2023-07-13T12:46:19;4.18;;;1.48;;
23768;SDS011;12064;50.890;5.424;2023-07-13T12:55:14;4.05;;;1.50;;
23768;SDS011;12064;50.890;5.424;2023-07-13T13:04:08;3.35;;;1.45;;
23768;SDS011;12064;50.890;5.424;2023-07-13T13:13:03;3.63;;;1.50;;
23768;SDS011;12064;50.890;5.424;2023-07-13T13:21:54;2.97;;;1.60;;
23768;SDS011;12064;50.890;5.424;2023-07-13T13:30:47;2.75;;;1.40;;
23768;SDS011;12064;50.890;5.424;2023-07-13T13:39:40;2.88;;;1.27;;
23768;SDS011;12064;50.890;5.424;2023-07-13T13:48:34;4.32;;;1.27;;
23768;SDS011;12064;50.890;5.424;2023-07-13T13:57:26;2.85;;;1.63;;
23768;SDS011;12064;50.890;5.424;2023-07-13T14:06:18;4.28;;;1.50;;
23768;SDS011;12064;50.890;5.424;2023-07-13T14:24:10;1.90;;;1.50;;
23768;SDS011;12064;50.890;5.424;2023-07-13T14:33:01;1.83;;;1.20;;
23768;SDS011;12064;50.890;5.424;2023-07-13T14:41:52;1.90;;;1.33;;
23768;SDS011;12064;50.890;5.424;2023-07-13T14:50:45;1.85;;;1.30;;
23768;SDS011;12064;50.890;5.424;2023-07-13T14:59:36;3.28;;;1.38;;
23768;SDS011;12064;50.890;5.424;2023-07-13T15:08:27;3.10;;;1.40;;
23768;SDS011;12064;50.890;5.424;2023-07-13T15:17:24;2.85;;;1.50;;
23768;SDS011;12064;50.890;5.424;2023-07-13T15:26:21;3.63;;;1.50;;
23768;SDS011;12064;50.890;5.424;2023-07-13T15:35:19;2.63;;;1.30;;
23768;SDS011;12064;50.890;5.424;2023-07-13T15:44:21;3.47;;;1.40;;
23768;SDS011;12064;50.890;5.424;2023-07-13T15:53:12;2.57;;;1.30;;
23768;SDS011;12064;50.890;5.424;2023-07-13T16:02:19;1.80;;;1.25;;
23768;SDS011;12064;50.890;5.424;2023-07-13T16:11:20;2.83;;;1.30;;
23768;SDS011;12064;50.890;5.424;2023-07-13T16:20:13;1.88;;;1.30;;
23768;SDS011;12064;50.890;5.424;2023-07-13T16:29:17;4.00;;;1.40;;
23768;SDS011;12064;50.890;5.424;2023-07-13T16:38:17;2.75;;;1.30;;
23768;SDS011;12064;50.890;5.424;2023-07-13T16:47:13;2.08;;;1.38;;
23768;SDS011;12064;50.890;5.424;2023-07-13T16:56:05;2.67;;;1.45;;
23768;SDS011;12064;50.890;5.424;2023-07-13T17:05:06;1.85;;;1.27;;
23768;SDS011;12064;50.890;5.424;2023-07-13T17:14:00;5.35;;;1.70;;
23768;SDS011;12064;50.890;5.424;2023-07-13T17:22:55;3.35;;;1.35;;
23768;SDS011;12064;50.890;5.424;2023-07-13T17:31:46;3.40;;;1.60;;
23768;SDS011;12064;50.890;5.424;2023-07-13T17:40:38;3.55;;;1.63;;
23768;SDS011;12064;50.890;5.424;2023-07-13T17:49:30;2.25;;;1.58;;
23768;SDS011;12064;50.890;5.424;2023-07-13T17:58:22;2.35;;;1.70;;
23768;SDS011;12064;50.890;5.424;2023-07-13T18:07:13;4.28;;;1.60;;
23768;SDS011;12064;50.890;5.424;2023-07-13T18:16:17;2.25;;;1.50;;
23768;SDS011;12064;50.890;5.424;2023-07-13T18:25:12;3.50;;;1.63;;
23768;SDS011;12064;50.890;5.424;2023-07-13T18:34:04;2.25;;;1.48;;
23768;SDS011;12064;50.890;5.424;2023-07-13T18:42:55;3.42;;;1.45;;
23768;SDS011;12064;50.890;5.424;2023-07-13T18:51:46;3.33;;;1.73;;
23768;SDS011;12064;50.890;5.424;2023-07-13T19:00:40;3.67;;;1.50;;
23768;SDS011;12064;50.890;5.424;2023-07-13T19:09:32;3.03;;;1.70;;
23768;SDS011;12064;50.890;5.424;2023-07-13T19:18:23;3.25;;;1.85;;
23768;SDS011;12064;50.890;5.424;2023-07-13T19:27:14;3.42;;;1.60;;
23768;SDS011;12064;50.890;5.424;2023-07-13T19:36:09;2.67;;;1.85;;
23768;SDS011;12064;50.890;5.424;2023-07-13T19:45:07;2.25;;;1.70;;
23768;SDS011;12064;50.890;5.424;2023-07-13T19:54:12;6.97;;;1.70;;
23768;SDS011;12064;50.890;5.424;2023-07-13T20:03:05;2.78;;;1.50;;
23768;SDS011;12064;50.890;5.424;2023-07-13T20:11:55;4.93;;;2.20;;
23768;SDS011;12064;50.890;5.424;2023-07-13T20:20:46;3.97;;;2.27;;
23768;SDS011;12064;50.890;5.424;2023-07-13T20:29:38;3.72;;;2.55;;
23768;SDS011;12064;50.890;5.424;2023-07-13T20:38:28;5.53;;;2.27;;
23768;SDS011;12064;50.890;5.424;2023-07-13T20:47:20;3.85;;;2.33;;
23768;SDS011;12064;50.890;5.424;2023-07-13T20:56:15;2.92;;;1.85;;
23768;SDS011;12064;50.890;5.424;2023-07-13T21:05:14;3.65;;;2.00;;
23768;SDS011;12064;50.890;5.424;2023-07-13T21:14:07;4.22;;;1.98;;
23768;SDS011;12064;50.890;5.424;2023-07-13T21:22:58;3.73;;;1.97;;
23768;SDS011;12064;50.890;5.424;2023-07-13T21:31:49;2.95;;;1.92;;
23768;SDS011;12064;50.890;5.424;2023-07-13T21:40:41;3.45;;;2.08;;
23768;SDS011;12064;50.890;5.424;2023-07-13T21:49:32;3.25;;;1.88;;
23768;SDS011;12064;50.890;5.424;2023-07-13T21:58:27;1.97;;;1.70;;
23768;SDS011;12064;50.890;5.424;2023-07-13T22:07:19;4.05;;;1.92;;
23768;SDS011;12064;50.890;5.424;2023-07-13T22:16:31;3.17;;;2.03;;
23768;SDS011;12064;50.890;5.424;2023-07-13T22:25:21;3.08;;;1.67;;
23768;SDS011;12064;50.890;5.424;2023-07-13T22:34:13;3.83;;;1.70;;
23768;SDS011;12064;50.890;5.424;2023-07-13T22:43:18;3.95;;;1.90;;
23768;SDS011;12064;50.890;5.424;2023-07-13T22:52:15;2.75;;;1.80;;
23768;SDS011;12064;50.890;5.424;2023-07-13T23:01:21;2.95;;;1.50;;
23768;SDS011;12064;50.890;5.424;2023-07-13T23:10:16;3.37;;;1.70;;
23768;SDS011;12064;50.890;5.424;2023-07-13T23:19:19;3.00;;;1.60;;
23768;SDS011;12064;50.890;5.424;2023-07-13T23:28:15;3.15;;;1.60;;
23768;SDS011;12064;50.890;5.424;2023-07-13T23:37:16;3.27;;;1.67;;
23768;SDS011;12064;50.890;5.424;2023-07-13T23:46:24;3.40;;;1.65;;
